sensor_id;sensor_type;location;lat;lon;timestamp;P1;durP1;ratioP1;P2;durP2;ratioP2
58864;SDS011;45702;52.982;6.658;2023-11-21T00:01:23;97.07;;;24.20;;
58864;SDS011;45702;52.982;6.658;2023-11-21T00:03:50;96.18;;;23.38;;
58864;SDS011;45702;52.982;6.658;2023-11-21T00:06:16;94.38;;;24.20;;
58864;SDS011;45702;52.982;6.658;2023-11-21T00:08:43;92.13;;;21.88;;
58864;SDS011;45702;52.982;6.658;2023-11-21T00:11:09;98.55;;;23.27;;
58864;SDS011;45702;52.982;6.658;2023-11-21T00:13:35;89.15;;;21.83;;
58864;SDS011;45702;52.982;6.658;2023-11-21T00:16:01;98.95;;;22.77;;
58864;SDS011;45702;52.982;6.658;2023-11-21T00:18:27;96.10;;;22.77;;
58864;SDS011;45702;52.982;6.658;2023-11-21T00:20:53;93.70;;;22.05;;
58864;SDS011;45702;52.982;6.658;2023-11-21T00:23:19;90.45;;;21.95;;
58864;SDS011;45702;52.982;6.658;2023-11-21T00:25:45;96.68;;;22.27;;
58864;SDS011;45702;52.982;6.658;2023-11-21T00:28:11;108.82;;;23.08;;
58864;SDS011;45702;52.982;6.658;2023-11-21T00:30:37;98.90;;;23.50;;
58864;SDS011;45702;52.982;6.658;2023-11-21T00:33:03;103.95;;;23.50;;
58864;SDS011;45702;52.982;6.658;2023-11-21T00:35:29;101.05;;;23.65;;
58864;SDS011;45702;52.982;6.658;2023-11-21T00:37:55;111.10;;;23.52;;
58864;SDS011;45702;52.982;6.658;2023-11-21T00:40:22;90.82;;;22.77;;
58864;SDS011;45702;52.982;6.658;2023-11-21T00:42:49;93.57;;;22.63;;
58864;SDS011;45702;52.982;6.658;2023-11-21T00:45:15;94.82;;;22.98;;
58864;SDS011;45702;52.982;6.658;2023-11-21T00:47:41;93.90;;;22.27;;
58864;SDS011;45702;52.982;6.658;2023-11-21T00:50:08;98.70;;;21.95;;
58864;SDS011;45702;52.982;6.658;2023-11-21T00:52:34;87.22;;;21.77;;
58864;SDS011;45702;52.982;6.658;2023-11-21T00:55:01;87.68;;;22.05;;
58864;SDS011;45702;52.982;6.658;2023-11-21T00:57:28;94.10;;;20.67;;
58864;SDS011;45702;52.982;6.658;2023-11-21T00:59:54;86.40;;;22.58;;
58864;SDS011;45702;52.982;6.658;2023-11-21T01:02:20;88.65;;;21.65;;
58864;SDS011;45702;52.982;6.658;2023-11-21T01:04:46;93.43;;;21.48;;
58864;SDS011;45702;52.982;6.658;2023-11-21T01:07:13;90.03;;;20.42;;
58864;SDS011;45702;52.982;6.658;2023-11-21T01:09:39;101.82;;;21.65;;
58864;SDS011;45702;52.982;6.658;2023-11-21T01:12:05;89.75;;;21.80;;
58864;SDS011;45702;52.982;6.658;2023-11-21T01:14:31;97.45;;;21.88;;
58864;SDS011;45702;52.982;6.658;2023-11-21T01:16:58;95.47;;;21.73;;
58864;SDS011;45702;52.982;6.658;2023-11-21T01:19:24;95.65;;;22.05;;
58864;SDS011;45702;52.982;6.658;2023-11-21T01:21:50;95.90;;;20.80;;
58864;SDS011;45702;52.982;6.658;2023-11-21T01:24:18;100.33;;;21.73;;
58864;SDS011;45702;52.982;6.658;2023-11-21T01:26:44;101.97;;;22.60;;
58864;SDS011;45702;52.982;6.658;2023-11-21T01:29:11;92.35;;;21.92;;
58864;SDS011;45702;52.982;6.658;2023-11-21T01:31:37;94.85;;;21.70;;
58864;SDS011;45702;52.982;6.658;2023-11-21T01:34:03;105.45;;;22.83;;
58864;SDS011;45702;52.982;6.658;2023-11-21T01:36:30;94.78;;;21.63;;
58864;SDS011;45702;52.982;6.658;2023-11-21T01:39:00;102.75;;;22.17;;
58864;SDS011;45702;52.982;6.658;2023-11-21T01:41:27;83.93;;;22.15;;
58864;SDS011;45702;52.982;6.658;2023-11-21T01:43:54;106.63;;;22.17;;
58864;SDS011;45702;52.982;6.658;2023-11-21T01:46:20;84.15;;;22.20;;
58864;SDS011;45702;52.982;6.658;2023-11-21T01:48:46;94.07;;;22.08;;
58864;SDS011;45702;52.982;6.658;2023-11-21T01:51:14;110.82;;;22.23;;
58864;SDS011;45702;52.982;6.658;2023-11-21T01:53:40;93.40;;;21.48;;
58864;SDS011;45702;52.982;6.658;2023-11-21T01:56:06;103.05;;;21.15;;
58864;SDS011;45702;52.982;6.658;2023-11-21T01:58:33;99.70;;;22.80;;
58864;SDS011;45702;52.982;6.658;2023-11-21T02:00:59;105.40;;;22.45;;
58864;SDS011;45702;52.982;6.658;2023-11-21T02:03:25;103.15;;;21.70;;
58864;SDS011;45702;52.982;6.658;2023-11-21T02:05:52;107.20;;;22.55;;
58864;SDS011;45702;52.982;6.658;2023-11-21T02:08:18;121.70;;;24.10;;
58864;SDS011;45702;52.982;6.658;2023-11-21T02:10:45;121.65;;;23.58;;
58864;SDS011;45702;52.982;6.658;2023-11-21T02:13:12;113.53;;;22.27;;
58864;SDS011;45702;52.982;6.658;2023-11-21T02:15:38;124.68;;;24.63;;
58864;SDS011;45702;52.982;6.658;2023-11-21T02:18:05;125.47;;;24.80;;
58864;SDS011;45702;52.982;6.658;2023-11-21T02:20:31;117.97;;;23.77;;
58864;SDS011;45702;52.982;6.658;2023-11-21T02:23:00;109.22;;;22.70;;
58864;SDS011;45702;52.982;6.658;2023-11-21T02:25:27;133.70;;;24.25;;
58864;SDS011;45702;52.982;6.658;2023-11-21T02:27:53;134.77;;;25.17;;
58864;SDS011;45702;52.982;6.658;2023-11-21T02:30:20;126.97;;;24.35;;
58864;SDS011;45702;52.982;6.658;2023-11-21T02:32:47;128.75;;;25.13;;
58864;SDS011;45702;52.982;6.658;2023-11-21T02:35:13;121.50;;;24.33;;
58864;SDS011;45702;52.982;6.658;2023-11-21T02:37:41;160.77;;;26.70;;
58864;SDS011;45702;52.982;6.658;2023-11-21T02:40:08;128.98;;;25.15;;
58864;SDS011;45702;52.982;6.658;2023-11-21T02:42:35;152.83;;;25.83;;
58864;SDS011;45702;52.982;6.658;2023-11-21T02:45:01;134.07;;;25.83;;
58864;SDS011;45702;52.982;6.658;2023-11-21T02:47:27;118.82;;;24.60;;
58864;SDS011;45702;52.982;6.658;2023-11-21T02:49:53;174.00;;;26.65;;
58864;SDS011;45702;52.982;6.658;2023-11-21T02:52:20;172.30;;;26.30;;
58864;SDS011;45702;52.982;6.658;2023-11-21T02:54:46;128.85;;;24.48;;
58864;SDS011;45702;52.982;6.658;2023-11-21T02:57:12;171.68;;;25.98;;
58864;SDS011;45702;52.982;6.658;2023-11-21T02:59:38;112.43;;;23.77;;
58864;SDS011;45702;52.982;6.658;2023-11-21T03:02:04;172.43;;;27.25;;
58864;SDS011;45702;52.982;6.658;2023-11-21T03:04:34;172.00;;;26.80;;
58864;SDS011;45702;52.982;6.658;2023-11-21T03:07:00;182.88;;;26.10;;
58864;SDS011;45702;52.982;6.658;2023-11-21T03:09:26;151.48;;;25.08;;
58864;SDS011;45702;52.982;6.658;2023-11-21T03:11:55;113.32;;;23.88;;
58864;SDS011;45702;52.982;6.658;2023-11-21T03:14:21;160.30;;;25.25;;
58864;SDS011;45702;52.982;6.658;2023-11-21T03:16:47;156.45;;;24.77;;
58864;SDS011;45702;52.982;6.658;2023-11-21T03:19:14;132.25;;;24.15;;
58864;SDS011;45702;52.982;6.658;2023-11-21T03:21:40;125.65;;;24.33;;
58864;SDS011;45702;52.982;6.658;2023-11-21T03:24:06;120.60;;;23.73;;
58864;SDS011;45702;52.982;6.658;2023-11-21T03:26:33;134.85;;;24.45;;
58864;SDS011;45702;52.982;6.658;2023-11-21T03:28:59;163.57;;;26.58;;
58864;SDS011;45702;52.982;6.658;2023-11-21T03:31:25;147.32;;;26.23;;
58864;SDS011;45702;52.982;6.658;2023-11-21T03:33:51;178.13;;;27.35;;
58864;SDS011;45702;52.982;6.658;2023-11-21T03:36:19;117.07;;;24.25;;
58864;SDS011;45702;52.982;6.658;2023-11-21T03:38:45;170.02;;;25.27;;
58864;SDS011;45702;52.982;6.658;2023-11-21T03:41:11;159.43;;;26.98;;
58864;SDS011;45702;52.982;6.658;2023-11-21T03:43:37;131.05;;;25.10;;
58864;SDS011;45702;52.982;6.658;2023-11-21T03:46:03;194.45;;;26.73;;
58864;SDS011;45702;52.982;6.658;2023-11-21T03:48:29;153.50;;;25.75;;
58864;SDS011;45702;52.982;6.658;2023-11-21T03:50:55;185.88;;;27.67;;
58864;SDS011;45702;52.982;6.658;2023-11-21T03:53:21;167.13;;;27.10;;
58864;SDS011;45702;52.982;6.658;2023-11-21T03:55:47;173.90;;;26.85;;
58864;SDS011;45702;52.982;6.658;2023-11-21T03:58:15;162.40;;;26.30;;
58864;SDS011;45702;52.982;6.658;2023-11-21T04:00:41;120.68;;;26.15;;
58864;SDS011;45702;52.982;6.658;2023-11-21T04:03:07;125.90;;;26.42;;
58864;SDS011;45702;52.982;6.658;2023-11-21T04:05:33;212.40;;;27.75;;
58864;SDS011;45702;52.982;6.658;2023-11-21T04:07:59;191.02;;;27.70;;
58864;SDS011;45702;52.982;6.658;2023-11-21T04:10:25;176.82;;;27.90;;
58864;SDS011;45702;52.982;6.658;2023-11-21T04:12:51;160.35;;;27.17;;
58864;SDS011;45702;52.982;6.658;2023-11-21T04:15:17;168.20;;;28.02;;
58864;SDS011;45702;52.982;6.658;2023-11-21T04:17:43;141.00;;;27.02;;
58864;SDS011;45702;52.982;6.658;2023-11-21T04:20:10;126.80;;;26.38;;
58864;SDS011;45702;52.982;6.658;2023-11-21T04:22:37;190.57;;;28.40;;
58864;SDS011;45702;52.982;6.658;2023-11-21T04:25:06;158.10;;;27.25;;
58864;SDS011;45702;52.982;6.658;2023-11-21T04:27:32;188.18;;;27.50;;
58864;SDS011;45702;52.982;6.658;2023-11-21T04:29:58;117.75;;;25.55;;
58864;SDS011;45702;52.982;6.658;2023-11-21T04:32:24;184.45;;;27.98;;
58864;SDS011;45702;52.982;6.658;2023-11-21T04:34:50;180.40;;;28.40;;
58864;SDS011;45702;52.982;6.658;2023-11-21T04:37:16;188.98;;;28.52;;
58864;SDS011;45702;52.982;6.658;2023-11-21T04:39:42;161.40;;;27.63;;
58864;SDS011;45702;52.982;6.658;2023-11-21T04:42:08;177.32;;;27.95;;
58864;SDS011;45702;52.982;6.658;2023-11-21T04:44:34;123.38;;;25.77;;
58864;SDS011;45702;52.982;6.658;2023-11-21T04:47:00;181.15;;;28.05;;
58864;SDS011;45702;52.982;6.658;2023-11-21T04:49:26;172.30;;;29.05;;
58864;SDS011;45702;52.982;6.658;2023-11-21T04:51:52;210.15;;;29.20;;
58864;SDS011;45702;52.982;6.658;2023-11-21T04:54:18;166.95;;;27.55;;
58864;SDS011;45702;52.982;6.658;2023-11-21T04:56:44;149.48;;;26.33;;
58864;SDS011;45702;52.982;6.658;2023-11-21T04:59:11;120.50;;;26.67;;
58864;SDS011;45702;52.982;6.658;2023-11-21T05:01:37;179.60;;;26.05;;
58864;SDS011;45702;52.982;6.658;2023-11-21T05:04:04;193.93;;;28.10;;
58864;SDS011;45702;52.982;6.658;2023-11-21T05:06:31;167.57;;;27.20;;
58864;SDS011;45702;52.982;6.658;2023-11-21T05:08:57;102.85;;;24.15;;
58864;SDS011;45702;52.982;6.658;2023-11-21T05:11:27;192.32;;;26.30;;
58864;SDS011;45702;52.982;6.658;2023-11-21T05:13:54;171.70;;;25.58;;
58864;SDS011;45702;52.982;6.658;2023-11-21T05:16:25;167.18;;;24.42;;
58864;SDS011;45702;52.982;6.658;2023-11-21T05:21:21;172.32;;;24.67;;
58864;SDS011;45702;52.982;6.658;2023-11-21T05:23:48;143.70;;;24.40;;
58864;SDS011;45702;52.982;6.658;2023-11-21T05:26:14;127.18;;;23.20;;
58864;SDS011;45702;52.982;6.658;2023-11-21T05:28:40;153.38;;;24.25;;
58864;SDS011;45702;52.982;6.658;2023-11-21T05:31:06;150.65;;;24.52;;
58864;SDS011;45702;52.982;6.658;2023-11-21T05:33:32;204.60;;;25.30;;
58864;SDS011;45702;52.982;6.658;2023-11-21T05:35:58;170.95;;;24.90;;
58864;SDS011;45702;52.982;6.658;2023-11-21T05:38:24;206.13;;;26.17;;
58864;SDS011;45702;52.982;6.658;2023-11-21T05:40:51;164.15;;;26.17;;
58864;SDS011;45702;52.982;6.658;2023-11-21T05:43:17;201.65;;;27.95;;
58864;SDS011;45702;52.982;6.658;2023-11-21T05:45:43;197.27;;;27.50;;
58864;SDS011;45702;52.982;6.658;2023-11-21T05:48:09;153.05;;;27.98;;
58864;SDS011;45702;52.982;6.658;2023-11-21T05:50:35;157.13;;;27.05;;
58864;SDS011;45702;52.982;6.658;2023-11-21T05:53:03;167.05;;;27.67;;
58864;SDS011;45702;52.982;6.658;2023-11-21T05:55:29;177.45;;;27.70;;
58864;SDS011;45702;52.982;6.658;2023-11-21T05:57:55;245.23;;;29.63;;
58864;SDS011;45702;52.982;6.658;2023-11-21T06:00:21;196.93;;;28.77;;
58864;SDS011;45702;52.982;6.658;2023-11-21T06:02:47;215.80;;;29.50;;
58864;SDS011;45702;52.982;6.658;2023-11-21T06:05:16;197.07;;;30.05;;
58864;SDS011;45702;52.982;6.658;2023-11-21T06:07:43;215.50;;;29.63;;
58864;SDS011;45702;52.982;6.658;2023-11-21T06:10:10;167.23;;;28.45;;
58864;SDS011;45702;52.982;6.658;2023-11-21T06:12:37;221.30;;;30.98;;
58864;SDS011;45702;52.982;6.658;2023-11-21T06:15:05;191.27;;;29.75;;
58864;SDS011;45702;52.982;6.658;2023-11-21T06:20:03;159.05;;;28.85;;
58864;SDS011;45702;52.982;6.658;2023-11-21T06:22:37;168.15;;;28.80;;
58864;SDS011;45702;52.982;6.658;2023-11-21T06:25:03;144.60;;;27.15;;
58864;SDS011;45702;52.982;6.658;2023-11-21T06:27:40;161.23;;;26.27;;
58864;SDS011;45702;52.982;6.658;2023-11-21T06:30:06;112.43;;;25.40;;
58864;SDS011;45702;52.982;6.658;2023-11-21T06:32:34;105.13;;;24.10;;
58864;SDS011;45702;52.982;6.658;2023-11-21T06:35:01;100.80;;;21.38;;
58864;SDS011;45702;52.982;6.658;2023-11-21T06:37:29;75.33;;;17.47;;
58864;SDS011;45702;52.982;6.658;2023-11-21T06:39:55;67.60;;;17.25;;
58864;SDS011;45702;52.982;6.658;2023-11-21T06:42:23;71.90;;;17.60;;
58864;SDS011;45702;52.982;6.658;2023-11-21T06:44:49;62.65;;;16.42;;
58864;SDS011;45702;52.982;6.658;2023-11-21T06:47:17;68.28;;;17.98;;
58864;SDS011;45702;52.982;6.658;2023-11-21T06:49:45;65.57;;;17.08;;
58864;SDS011;45702;52.982;6.658;2023-11-21T06:52:13;62.17;;;16.07;;
58864;SDS011;45702;52.982;6.658;2023-11-21T06:54:39;80.80;;;17.58;;
58864;SDS011;45702;52.982;6.658;2023-11-21T06:57:05;71.10;;;17.35;;
58864;SDS011;45702;52.982;6.658;2023-11-21T06:59:31;74.55;;;17.75;;
58864;SDS011;45702;52.982;6.658;2023-11-21T07:01:57;67.15;;;17.70;;
58864;SDS011;45702;52.982;6.658;2023-11-21T07:04:23;74.35;;;18.42;;
58864;SDS011;45702;52.982;6.658;2023-11-21T07:06:56;68.65;;;17.92;;
58864;SDS011;45702;52.982;6.658;2023-11-21T07:09:22;74.18;;;19.00;;
58864;SDS011;45702;52.982;6.658;2023-11-21T07:11:48;71.13;;;19.38;;
58864;SDS011;45702;52.982;6.658;2023-11-21T07:14:15;88.45;;;19.85;;
58864;SDS011;45702;52.982;6.658;2023-11-21T07:16:42;79.05;;;19.13;;
58864;SDS011;45702;52.982;6.658;2023-11-21T07:19:08;79.90;;;19.08;;
58864;SDS011;45702;52.982;6.658;2023-11-21T07:21:34;80.90;;;19.38;;
58864;SDS011;45702;52.982;6.658;2023-11-21T07:24:01;80.28;;;20.10;;
58864;SDS011;45702;52.982;6.658;2023-11-21T07:26:27;87.82;;;20.13;;
58864;SDS011;45702;52.982;6.658;2023-11-21T07:28:53;88.60;;;19.27;;
58864;SDS011;45702;52.982;6.658;2023-11-21T07:31:20;83.57;;;18.42;;
58864;SDS011;45702;52.982;6.658;2023-11-21T07:33:47;90.35;;;18.30;;
58864;SDS011;45702;52.982;6.658;2023-11-21T07:36:13;69.90;;;18.73;;
58864;SDS011;45702;52.982;6.658;2023-11-21T07:38:39;73.00;;;18.00;;
58864;SDS011;45702;52.982;6.658;2023-11-21T07:41:05;79.68;;;18.20;;
58864;SDS011;45702;52.982;6.658;2023-11-21T07:43:37;105.15;;;19.83;;
58864;SDS011;45702;52.982;6.658;2023-11-21T07:46:04;117.57;;;20.02;;
58864;SDS011;45702;52.982;6.658;2023-11-21T07:48:30;117.88;;;20.23;;
58864;SDS011;45702;52.982;6.658;2023-11-21T07:50:57;146.02;;;21.63;;
58864;SDS011;45702;52.982;6.658;2023-11-21T07:53:26;160.70;;;23.05;;
58864;SDS011;45702;52.982;6.658;2023-11-21T07:55:55;151.45;;;22.00;;
58864;SDS011;45702;52.982;6.658;2023-11-21T07:58:21;138.50;;;20.33;;
58864;SDS011;45702;52.982;6.658;2023-11-21T08:00:48;126.18;;;19.88;;
58864;SDS011;45702;52.982;6.658;2023-11-21T08:03:14;93.18;;;19.38;;
58864;SDS011;45702;52.982;6.658;2023-11-21T08:05:41;96.85;;;19.50;;
58864;SDS011;45702;52.982;6.658;2023-11-21T08:08:07;94.55;;;19.67;;
58864;SDS011;45702;52.982;6.658;2023-11-21T08:10:33;81.65;;;18.83;;
58864;SDS011;45702;52.982;6.658;2023-11-21T08:13:01;106.28;;;19.73;;
58864;SDS011;45702;52.982;6.658;2023-11-21T08:15:27;122.35;;;22.15;;
58864;SDS011;45702;52.982;6.658;2023-11-21T08:17:53;92.40;;;20.90;;
58864;SDS011;45702;52.982;6.658;2023-11-21T08:20:19;86.28;;;19.73;;
58864;SDS011;45702;52.982;6.658;2023-11-21T08:22:45;84.75;;;20.65;;
58864;SDS011;45702;52.982;6.658;2023-11-21T08:25:12;88.25;;;20.15;;
58864;SDS011;45702;52.982;6.658;2023-11-21T08:27:38;90.63;;;21.92;;
58864;SDS011;45702;52.982;6.658;2023-11-21T08:30:05;104.68;;;23.38;;
58864;SDS011;45702;52.982;6.658;2023-11-21T08:32:32;99.57;;;24.30;;
58864;SDS011;45702;52.982;6.658;2023-11-21T08:34:58;112.35;;;24.95;;
58864;SDS011;45702;52.982;6.658;2023-11-21T08:37:25;132.88;;;27.33;;
58864;SDS011;45702;52.982;6.658;2023-11-21T08:39:57;128.35;;;27.40;;
58864;SDS011;45702;52.982;6.658;2023-11-21T08:42:24;147.65;;;30.15;;
58864;SDS011;45702;52.982;6.658;2023-11-21T08:44:53;105.10;;;27.50;;
58864;SDS011;45702;52.982;6.658;2023-11-21T08:47:19;106.68;;;28.63;;
58864;SDS011;45702;52.982;6.658;2023-11-21T08:49:45;116.55;;;28.48;;
58864;SDS011;45702;52.982;6.658;2023-11-21T08:52:12;125.95;;;28.45;;
58864;SDS011;45702;52.982;6.658;2023-11-21T08:54:39;124.43;;;30.08;;
58864;SDS011;45702;52.982;6.658;2023-11-21T08:57:05;103.03;;;27.83;;
58864;SDS011;45702;52.982;6.658;2023-11-21T08:59:31;111.65;;;29.58;;
58864;SDS011;45702;52.982;6.658;2023-11-21T09:01:57;114.40;;;29.15;;
58864;SDS011;45702;52.982;6.658;2023-11-21T09:04:23;114.60;;;28.70;;
58864;SDS011;45702;52.982;6.658;2023-11-21T09:06:49;102.30;;;27.23;;
58864;SDS011;45702;52.982;6.658;2023-11-21T09:09:15;109.90;;;27.73;;
58864;SDS011;45702;52.982;6.658;2023-11-21T09:11:41;104.00;;;29.42;;
58864;SDS011;45702;52.982;6.658;2023-11-21T09:14:09;94.35;;;27.33;;
58864;SDS011;45702;52.982;6.658;2023-11-21T09:16:37;93.93;;;28.52;;
58864;SDS011;45702;52.982;6.658;2023-11-21T09:19:04;92.28;;;28.15;;
58864;SDS011;45702;52.982;6.658;2023-11-21T09:21:30;83.15;;;27.55;;
58864;SDS011;45702;52.982;6.658;2023-11-21T09:23:56;81.53;;;27.20;;
58864;SDS011;45702;52.982;6.658;2023-11-21T09:26:23;84.53;;;26.90;;
58864;SDS011;45702;52.982;6.658;2023-11-21T09:28:49;82.05;;;26.88;;
58864;SDS011;45702;52.982;6.658;2023-11-21T09:31:15;71.13;;;26.52;;
58864;SDS011;45702;52.982;6.658;2023-11-21T09:33:45;79.30;;;26.98;;
58864;SDS011;45702;52.982;6.658;2023-11-21T09:36:13;86.32;;;27.98;;
58864;SDS011;45702;52.982;6.658;2023-11-21T09:38:40;75.32;;;26.45;;
58864;SDS011;45702;52.982;6.658;2023-11-21T09:41:07;79.68;;;26.35;;
58864;SDS011;45702;52.982;6.658;2023-11-21T09:43:37;76.70;;;25.33;;
58864;SDS011;45702;52.982;6.658;2023-11-21T09:46:04;63.65;;;23.73;;
58864;SDS011;45702;52.982;6.658;2023-11-21T09:48:35;61.80;;;23.38;;
58864;SDS011;45702;52.982;6.658;2023-11-21T09:51:02;63.53;;;21.88;;
58864;SDS011;45702;52.982;6.658;2023-11-21T09:53:29;62.85;;;22.50;;
58864;SDS011;45702;52.982;6.658;2023-11-21T09:55:56;62.60;;;22.42;;
58864;SDS011;45702;52.982;6.658;2023-11-21T09:58:22;58.42;;;21.75;;
58864;SDS011;45702;52.982;6.658;2023-11-21T10:00:53;62.30;;;21.60;;
58864;SDS011;45702;52.982;6.658;2023-11-21T10:03:19;55.67;;;21.50;;
58864;SDS011;45702;52.982;6.658;2023-11-21T10:05:46;55.83;;;21.60;;
58864;SDS011;45702;52.982;6.658;2023-11-21T10:08:15;52.05;;;20.27;;
58864;SDS011;45702;52.982;6.658;2023-11-21T10:10:44;50.97;;;21.17;;
58864;SDS011;45702;52.982;6.658;2023-11-21T10:13:11;51.88;;;20.90;;
58864;SDS011;45702;52.982;6.658;2023-11-21T10:15:41;51.45;;;20.45;;
58864;SDS011;45702;52.982;6.658;2023-11-21T10:18:09;50.75;;;21.30;;
58864;SDS011;45702;52.982;6.658;2023-11-21T10:20:35;48.50;;;20.05;;
58864;SDS011;45702;52.982;6.658;2023-11-21T10:23:03;48.75;;;20.77;;
58864;SDS011;45702;52.982;6.658;2023-11-21T10:25:30;44.75;;;19.00;;
58864;SDS011;45702;52.982;6.658;2023-11-21T10:28:00;40.50;;;18.92;;
58864;SDS011;45702;52.982;6.658;2023-11-21T10:30:31;39.40;;;18.48;;
58864;SDS011;45702;52.982;6.658;2023-11-21T10:32:58;41.17;;;18.40;;
58864;SDS011;45702;52.982;6.658;2023-11-21T10:35:38;36.67;;;17.35;;
58864;SDS011;45702;52.982;6.658;2023-11-21T10:38:04;38.58;;;17.17;;
58864;SDS011;45702;52.982;6.658;2023-11-21T10:40:30;37.08;;;16.65;;
58864;SDS011;45702;52.982;6.658;2023-11-21T10:43:05;30.45;;;14.60;;
58864;SDS011;45702;52.982;6.658;2023-11-21T10:45:33;33.80;;;15.57;;
58864;SDS011;45702;52.982;6.658;2023-11-21T10:48:00;30.45;;;14.57;;
58864;SDS011;45702;52.982;6.658;2023-11-21T10:50:26;27.75;;;13.23;;
58864;SDS011;45702;52.982;6.658;2023-11-21T10:52:52;29.40;;;13.52;;
58864;SDS011;45702;52.982;6.658;2023-11-21T10:55:18;25.45;;;12.20;;
58864;SDS011;45702;52.982;6.658;2023-11-21T10:57:51;28.80;;;12.48;;
58864;SDS011;45702;52.982;6.658;2023-11-21T11:00:18;27.98;;;12.85;;
58864;SDS011;45702;52.982;6.658;2023-11-21T11:02:51;24.00;;;12.40;;
58864;SDS011;45702;52.982;6.658;2023-11-21T11:05:19;24.05;;;12.30;;
58864;SDS011;45702;52.982;6.658;2023-11-21T11:07:45;26.48;;;13.05;;
58864;SDS011;45702;52.982;6.658;2023-11-21T11:10:14;24.70;;;12.63;;
58864;SDS011;45702;52.982;6.658;2023-11-21T11:12:43;26.95;;;13.05;;
58864;SDS011;45702;52.982;6.658;2023-11-21T11:15:11;28.30;;;12.95;;
58864;SDS011;45702;52.982;6.658;2023-11-21T11:17:37;23.98;;;12.07;;
58864;SDS011;45702;52.982;6.658;2023-11-21T11:20:04;26.63;;;12.68;;
58864;SDS011;45702;52.982;6.658;2023-11-21T11:22:37;24.00;;;12.20;;
58864;SDS011;45702;52.982;6.658;2023-11-21T11:27:48;22.75;;;12.05;;
58864;SDS011;45702;52.982;6.658;2023-11-21T11:33:08;25.45;;;12.70;;
58864;SDS011;45702;52.982;6.658;2023-11-21T11:38:02;22.13;;;12.10;;
58864;SDS011;45702;52.982;6.658;2023-11-21T11:40:41;22.20;;;12.35;;
58864;SDS011;45702;52.982;6.658;2023-11-21T11:43:07;22.73;;;12.30;;
58864;SDS011;45702;52.982;6.658;2023-11-21T11:45:34;23.38;;;11.80;;
58864;SDS011;45702;52.982;6.658;2023-11-21T11:48:21;22.92;;;11.60;;
58864;SDS011;45702;52.982;6.658;2023-11-21T11:53:40;22.90;;;11.75;;
58864;SDS011;45702;52.982;6.658;2023-11-21T11:56:26;21.95;;;11.80;;
58864;SDS011;45702;52.982;6.658;2023-11-21T11:58:53;22.65;;;11.77;;
58864;SDS011;45702;52.982;6.658;2023-11-21T12:01:19;23.38;;;11.50;;
58864;SDS011;45702;52.982;6.658;2023-11-21T12:06:34;24.52;;;11.93;;
58864;SDS011;45702;52.982;6.658;2023-11-21T12:09:01;22.52;;;11.48;;
58864;SDS011;45702;52.982;6.658;2023-11-21T12:11:33;22.90;;;10.95;;
58864;SDS011;45702;52.982;6.658;2023-11-21T12:14:03;21.63;;;11.45;;
58864;SDS011;45702;52.982;6.658;2023-11-21T12:16:32;23.58;;;11.23;;
58864;SDS011;45702;52.982;6.658;2023-11-21T12:19:02;20.40;;;9.88;;
58864;SDS011;45702;52.982;6.658;2023-11-21T12:21:28;20.92;;;10.82;;
58864;SDS011;45702;52.982;6.658;2023-11-21T12:23:55;22.75;;;10.90;;
58864;SDS011;45702;52.982;6.658;2023-11-21T12:26:23;21.80;;;10.55;;
58864;SDS011;45702;52.982;6.658;2023-11-21T12:28:53;22.17;;;10.97;;
58864;SDS011;45702;52.982;6.658;2023-11-21T12:31:22;20.25;;;10.82;;
58864;SDS011;45702;52.982;6.658;2023-11-21T12:33:48;22.23;;;11.55;;
58864;SDS011;45702;52.982;6.658;2023-11-21T12:36:15;24.77;;;11.82;;
58864;SDS011;45702;52.982;6.658;2023-11-21T12:38:41;22.83;;;11.32;;
58864;SDS011;45702;52.982;6.658;2023-11-21T12:41:08;20.45;;;10.82;;
58864;SDS011;45702;52.982;6.658;2023-11-21T12:43:34;21.90;;;11.25;;
58864;SDS011;45702;52.982;6.658;2023-11-21T12:46:06;18.73;;;10.57;;
58864;SDS011;45702;52.982;6.658;2023-11-21T12:48:36;22.17;;;11.27;;
58864;SDS011;45702;52.982;6.658;2023-11-21T12:51:04;22.10;;;11.27;;
58864;SDS011;45702;52.982;6.658;2023-11-21T12:53:30;19.25;;;10.68;;
58864;SDS011;45702;52.982;6.658;2023-11-21T12:56:02;20.85;;;10.88;;
58864;SDS011;45702;52.982;6.658;2023-11-21T12:58:28;20.77;;;10.52;;
58864;SDS011;45702;52.982;6.658;2023-11-21T13:00:55;18.48;;;10.15;;
58864;SDS011;45702;52.982;6.658;2023-11-21T13:03:24;18.02;;;10.10;;
58864;SDS011;45702;52.982;6.658;2023-11-21T13:05:51;17.35;;;10.25;;
58864;SDS011;45702;52.982;6.658;2023-11-21T13:08:20;18.35;;;10.15;;
58864;SDS011;45702;52.982;6.658;2023-11-21T13:10:54;16.97;;;9.70;;
58864;SDS011;45702;52.982;6.658;2023-11-21T13:13:21;26.88;;;14.15;;
58864;SDS011;45702;52.982;6.658;2023-11-21T13:15:48;18.52;;;10.52;;
58864;SDS011;45702;52.982;6.658;2023-11-21T13:18:14;21.80;;;9.63;;
58864;SDS011;45702;52.982;6.658;2023-11-21T13:20:41;15.15;;;9.00;;
58864;SDS011;45702;52.982;6.658;2023-11-21T13:23:11;17.83;;;9.63;;
58864;SDS011;45702;52.982;6.658;2023-11-21T13:25:39;16.98;;;9.25;;
58864;SDS011;45702;52.982;6.658;2023-11-21T13:28:08;18.33;;;9.50;;
58864;SDS011;45702;52.982;6.658;2023-11-21T13:30:37;18.25;;;9.70;;
58864;SDS011;45702;52.982;6.658;2023-11-21T13:33:05;18.05;;;9.98;;
58864;SDS011;45702;52.982;6.658;2023-11-21T13:35:33;20.98;;;10.63;;
58864;SDS011;45702;52.982;6.658;2023-11-21T13:38:13;20.58;;;9.95;;
58864;SDS011;45702;52.982;6.658;2023-11-21T13:40:40;18.92;;;10.82;;
58864;SDS011;45702;52.982;6.658;2023-11-21T13:43:12;22.88;;;11.60;;
58864;SDS011;45702;52.982;6.658;2023-11-21T13:45:39;20.83;;;10.38;;
58864;SDS011;45702;52.982;6.658;2023-11-21T13:48:05;19.63;;;10.05;;
58864;SDS011;45702;52.982;6.658;2023-11-21T13:50:42;19.17;;;10.48;;
58864;SDS011;45702;52.982;6.658;2023-11-21T13:53:22;16.65;;;10.18;;
58864;SDS011;45702;52.982;6.658;2023-11-21T13:55:49;20.27;;;10.52;;
58864;SDS011;45702;52.982;6.658;2023-11-21T13:58:16;17.50;;;9.55;;
58864;SDS011;45702;52.982;6.658;2023-11-21T14:00:47;18.75;;;9.63;;
58864;SDS011;45702;52.982;6.658;2023-11-21T14:03:20;16.80;;;9.57;;
58864;SDS011;45702;52.982;6.658;2023-11-21T14:05:50;17.27;;;9.75;;
58864;SDS011;45702;52.982;6.658;2023-11-21T14:08:22;18.17;;;9.20;;
58864;SDS011;45702;52.982;6.658;2023-11-21T14:10:54;16.05;;;9.57;;
58864;SDS011;45702;52.982;6.658;2023-11-21T14:13:24;21.13;;;10.20;;
58864;SDS011;45702;52.982;6.658;2023-11-21T14:15:51;17.10;;;9.95;;
58864;SDS011;45702;52.982;6.658;2023-11-21T14:18:25;20.92;;;10.40;;
58864;SDS011;45702;52.982;6.658;2023-11-21T14:21:08;22.63;;;11.38;;
58864;SDS011;45702;52.982;6.658;2023-11-21T14:23:35;24.23;;;12.30;;
58864;SDS011;45702;52.982;6.658;2023-11-21T14:26:03;26.02;;;12.10;;
58864;SDS011;45702;52.982;6.658;2023-11-21T14:28:31;26.87;;;12.23;;
58864;SDS011;45702;52.982;6.658;2023-11-21T14:33:25;23.92;;;12.52;;
58864;SDS011;45702;52.982;6.658;2023-11-21T14:35:52;25.90;;;12.40;;
58864;SDS011;45702;52.982;6.658;2023-11-21T14:38:19;25.10;;;12.23;;